createdAt,value
2023-08-08T00:01:50.519Z,1.90
2023-08-08T00:04:18.860Z,1.90
2023-08-08T00:06:49.452Z,1.77
2023-08-08T00:09:18.807Z,1.90
2023-08-08T00:11:46.843Z,1.73
2023-08-08T00:14:14.749Z,1.88
2023-08-08T00:16:45.291Z,2.35
2023-08-08T00:19:13.290Z,1.73
2023-08-08T00:21:41.210Z,2.08
2023-08-08T00:24:09.127Z,2.10
2023-08-08T00:26:38.531Z,2.10
2023-08-08T00:29:07.299Z,2.33
2023-08-08T00:31:35.343Z,2.05
2023-08-08T00:34:03.236Z,2.38
2023-08-08T00:36:31.406Z,2.33
2023-08-08T00:38:59.410Z,2.28
2023-08-08T00:41:27.821Z,2.35
2023-08-08T00:43:57.216Z,2.13
2023-08-08T00:46:25.988Z,1.92
2023-08-08T00:48:57.395Z,2.00
2023-08-08T00:51:26.594Z,2.30
2023-08-08T00:53:55.432Z,2.22
2023-08-08T00:56:23.860Z,2.00
2023-08-08T00:58:52.338Z,2.40
2023-08-08T01:01:21.898Z,2.20
2023-08-08T01:03:50.895Z,2.38
2023-08-08T01:06:25.326Z,2.20
2023-08-08T01:08:59.707Z,2.20
2023-08-08T01:11:30.424Z,2.20
2023-08-08T01:13:59.008Z,2.33
2023-08-08T01:16:29.064Z,2.28
2023-08-08T01:18:58.374Z,2.28
2023-08-08T01:21:29.711Z,2.05
2023-08-08T01:24:03.399Z,2.10
2023-08-08T01:26:35.635Z,2.20
2023-08-08T01:31:31.384Z,2.25
2023-08-08T01:33:59.427Z,2.10
2023-08-08T01:36:32.783Z,1.92
2023-08-08T01:39:05.512Z,2.10
2023-08-08T01:41:36.027Z,2.05
2023-08-08T01:44:04.783Z,1.98
2023-08-08T01:46:33.468Z,2.13
2023-08-08T01:49:01.525Z,2.05
2023-08-08T01:51:29.668Z,2.25
2023-08-08T01:53:58.132Z,2.05
2023-08-08T01:56:26.168Z,2.20
2023-08-08T01:58:55.474Z,2.30
2023-08-08T02:01:23.534Z,2.00
2023-08-08T02:03:51.669Z,2.10
2023-08-08T02:06:22.046Z,2.10
2023-08-08T02:08:50.061Z,2.00
2023-08-08T02:11:20.054Z,2.13
2023-08-08T02:13:47.981Z,1.85
2023-08-08T02:16:17.459Z,1.90
2023-08-08T02:18:45.538Z,2.05
2023-08-08T02:21:13.672Z,1.92
2023-08-08T02:23:41.668Z,1.98
2023-08-08T02:26:09.659Z,2.20
2023-08-08T02:28:37.918Z,2.00
2023-08-08T02:31:05.912Z,2.10
2023-08-08T02:33:35.251Z,2.15
2023-08-08T02:36:03.300Z,2.00
2023-08-08T02:38:33.498Z,2.05
2023-08-08T02:41:01.492Z,2.30
2023-08-08T02:43:29.508Z,2.00
2023-08-08T02:45:57.433Z,2.20
2023-08-08T02:48:25.567Z,1.92
2023-08-08T02:50:55.100Z,2.20
2023-08-08T02:53:23.195Z,2.20
2023-08-08T02:55:51.178Z,2.10
2023-08-08T02:58:19.157Z,1.90
2023-08-08T03:00:47.309Z,2.08
2023-08-08T03:03:15.519Z,1.67
2023-08-08T03:05:46.149Z,1.88
2023-08-08T03:08:15.504Z,1.70
2023-08-08T03:10:46.063Z,2.20
2023-08-08T03:13:14.042Z,2.05
2023-08-08T03:15:42.034Z,2.05
2023-08-08T03:18:10.119Z,1.77
2023-08-08T03:20:41.295Z,2.03
2023-08-08T03:23:09.354Z,2.30
2023-08-08T03:25:38.641Z,1.88
2023-08-08T03:28:06.810Z,2.08
2023-08-08T03:30:34.919Z,1.98
2023-08-08T03:33:02.977Z,2.05
2023-08-08T03:35:31.291Z,2.05
2023-08-08T03:37:59.331Z,2.53
2023-08-08T03:40:27.376Z,2.40
2023-08-08T03:42:56.669Z,2.00
2023-08-08T03:45:24.753Z,1.90
2023-08-08T03:47:52.848Z,1.90
2023-08-08T03:50:21.020Z,2.20
2023-08-08T03:52:49.074Z,1.65
2023-08-08T03:55:17.128Z,1.98
2023-08-08T03:57:45.167Z,1.83
2023-08-08T04:00:15.175Z,2.22
2023-08-08T04:02:43.326Z,2.00
2023-08-08T04:05:11.327Z,2.15
2023-08-08T04:07:39.293Z,1.90
2023-08-08T04:10:08.511Z,2.20
2023-08-08T04:12:36.516Z,2.20
2023-08-08T04:15:04.761Z,2.22
2023-08-08T04:17:34.173Z,1.92
2023-08-08T04:20:02.288Z,2.00
2023-08-08T04:22:30.255Z,1.90
2023-08-08T04:24:58.537Z,2.10
2023-08-08T04:27:30.253Z,1.92
2023-08-08T04:29:58.287Z,2.08
2023-08-08T04:32:26.223Z,2.15
2023-08-08T04:34:55.521Z,1.90
2023-08-08T04:37:26.120Z,2.00
2023-08-08T04:39:54.118Z,2.20
2023-08-08T04:42:22.183Z,2.00
2023-08-08T04:44:50.230Z,2.10
2023-08-08T04:47:18.344Z,2.22
2023-08-08T04:49:46.358Z,1.75
2023-08-08T04:52:18.614Z,1.92
2023-08-08T04:54:49.519Z,1.95
2023-08-08T04:57:17.524Z,2.20
2023-08-08T04:59:48.724Z,2.17
2023-08-08T05:02:17.537Z,2.10
2023-08-08T05:04:48.774Z,2.03
2023-08-08T05:07:20.139Z,2.08
2023-08-08T05:09:51.013Z,2.30
2023-08-08T05:12:19.015Z,2.00
2023-08-08T05:14:47.099Z,2.10
2023-08-08T05:17:15.047Z,1.98
2023-08-08T05:19:42.972Z,2.15
2023-08-08T05:22:10.969Z,2.22
2023-08-08T05:24:40.300Z,1.98
2023-08-08T05:27:08.509Z,1.85
2023-08-08T05:29:39.208Z,1.90
2023-08-08T05:32:08.735Z,2.25
2023-08-08T05:34:37.160Z,2.28
2023-08-08T05:37:15.699Z,2.10
2023-08-08T05:39:46.525Z,2.15
2023-08-08T05:42:14.516Z,2.15
2023-08-08T05:44:45.522Z,2.08
2023-08-08T05:47:13.616Z,2.28
2023-08-08T05:49:44.529Z,2.10
2023-08-08T05:52:15.241Z,1.88
2023-08-08T05:54:43.300Z,2.00
2023-08-08T05:57:12.677Z,2.30
2023-08-08T05:59:40.664Z,2.10
2023-08-08T06:02:08.701Z,2.47
2023-08-08T06:04:36.755Z,2.20
2023-08-08T06:07:06.288Z,2.40
2023-08-08T06:09:35.553Z,2.58
2023-08-08T06:12:03.716Z,1.80
2023-08-08T06:14:33.530Z,2.08
2023-08-08T06:17:01.991Z,2.15
2023-08-08T06:19:29.933Z,2.15
2023-08-08T06:21:57.976Z,2.10
2023-08-08T06:24:25.997Z,2.20
2023-08-08T06:26:54.042Z,2.28
2023-08-08T06:29:22.429Z,1.92
2023-08-08T06:31:51.856Z,1.88
2023-08-08T06:36:50.901Z,1.77
2023-08-08T06:39:22.889Z,2.40
2023-08-08T06:41:50.895Z,2.15
2023-08-08T06:44:21.782Z,2.10
2023-08-08T06:46:51.188Z,1.85
2023-08-08T06:49:19.192Z,2.08
2023-08-08T06:51:47.178Z,1.92
2023-08-08T06:54:15.203Z,1.80
2023-08-08T06:56:43.182Z,2.05
2023-08-08T06:59:11.111Z,1.95
2023-08-08T07:01:39.125Z,2.40
2023-08-08T07:04:08.481Z,2.72
2023-08-08T07:06:37.337Z,2.28
2023-08-08T07:09:05.468Z,2.88
2023-08-08T07:11:33.553Z,2.15
2023-08-08T07:14:01.678Z,2.20
2023-08-08T07:16:29.576Z,2.30
2023-08-08T07:18:57.575Z,2.20
2023-08-08T07:21:30.582Z,2.67
2023-08-08T07:23:58.933Z,2.38
2023-08-08T07:26:26.974Z,2.60
2023-08-08T07:28:54.942Z,2.30
2023-08-08T07:31:22.987Z,2.70
2023-08-08T07:33:50.979Z,1.85
2023-08-08T07:36:19.054Z,2.10
2023-08-08T07:38:48.380Z,1.95
2023-08-08T07:41:16.453Z,1.98
2023-08-08T07:43:44.417Z,1.98
2023-08-08T07:46:12.690Z,2.00
2023-08-08T07:48:41.518Z,2.13
2023-08-08T07:51:09.548Z,1.73
2023-08-08T07:53:37.549Z,1.55
2023-08-08T07:56:06.930Z,1.73
2023-08-08T07:58:35.099Z,1.90
2023-08-08T08:01:08.192Z,1.77
2023-08-08T08:03:36.669Z,1.60
2023-08-08T08:06:05.037Z,2.10
2023-08-08T08:08:33.035Z,1.65
2023-08-08T08:11:01.378Z,1.73
2023-08-08T08:13:30.845Z,1.83
2023-08-08T08:15:59.230Z,1.70
2023-08-08T08:18:27.224Z,1.77
2023-08-08T08:20:55.485Z,1.67
2023-08-08T08:23:23.465Z,1.58
2023-08-08T08:25:51.652Z,1.58
2023-08-08T08:28:19.796Z,1.55
2023-08-08T08:30:49.229Z,1.50
2023-08-08T08:33:17.316Z,1.40
2023-08-08T08:35:46.674Z,1.90
2023-08-08T08:38:14.709Z,1.40
2023-08-08T08:40:45.500Z,1.10
2023-08-08T08:43:13.873Z,1.00
2023-08-08T08:45:44.978Z,1.17
2023-08-08T08:48:17.625Z,1.70
2023-08-08T08:50:49.546Z,1.00
2023-08-08T08:53:18.873Z,0.90
2023-08-08T08:55:47.018Z,1.38
2023-08-08T08:58:17.721Z,0.85
2023-08-08T09:00:46.946Z,1.25
2023-08-08T09:03:16.826Z,1.05
2023-08-08T09:05:46.108Z,0.90
2023-08-08T09:08:14.199Z,1.05
2023-08-08T09:10:42.280Z,1.20
2023-08-08T09:13:10.760Z,1.00
2023-08-08T09:15:38.777Z,0.98
2023-08-08T09:18:10.247Z,0.73
2023-08-08T09:20:39.666Z,0.90
2023-08-08T09:23:07.676Z,1.05
2023-08-08T09:25:35.846Z,0.80
2023-08-08T09:28:03.914Z,0.98
2023-08-08T09:30:34.182Z,0.80
2023-08-08T09:33:02.943Z,0.90
2023-08-08T09:35:35.903Z,0.60
2023-08-08T09:38:08.648Z,0.90
2023-08-08T09:40:37.384Z,0.68
2023-08-08T09:43:09.825Z,0.80
2023-08-08T09:45:38.956Z,0.88
2023-08-08T09:48:08.496Z,0.60
2023-08-08T09:50:37.692Z,0.70
2023-08-08T09:53:06.906Z,0.85
2023-08-08T09:55:37.298Z,0.55
2023-08-08T09:58:07.345Z,0.90
2023-08-08T10:00:36.010Z,0.68
2023-08-08T10:03:04.372Z,0.90
2023-08-08T10:05:32.892Z,0.80
2023-08-08T10:08:00.983Z,0.80
2023-08-08T10:10:29.721Z,0.57
2023-08-08T10:12:59.690Z,1.00
2023-08-08T10:15:28.529Z,0.90
2023-08-08T10:17:58.277Z,0.90
2023-08-08T10:20:27.163Z,0.77
2023-08-08T10:22:59.116Z,0.90
2023-08-08T10:25:29.690Z,0.90
2023-08-08T10:28:23.917Z,0.75
2023-08-08T10:30:56.144Z,0.95
2023-08-08T10:33:25.581Z,0.73
2023-08-08T10:36:00.107Z,0.90
2023-08-08T10:38:29.777Z,0.90
2023-08-08T10:40:59.656Z,0.98
2023-08-08T10:43:30.174Z,0.68
2023-08-08T10:46:12.963Z,0.88
2023-08-08T10:48:54.922Z,0.93
2023-08-08T10:51:33.795Z,1.13
2023-08-08T10:54:06.019Z,0.70
2023-08-08T10:56:35.475Z,0.68
2023-08-08T10:59:15.753Z,1.20
2023-08-08T11:01:44.803Z,1.00
2023-08-08T11:04:13.771Z,0.82
2023-08-08T11:06:42.227Z,1.00
2023-08-08T11:09:11.032Z,0.77
2023-08-08T11:11:40.212Z,0.73
2023-08-08T11:14:14.112Z,0.80
2023-08-08T11:16:42.524Z,0.90
2023-08-08T11:19:11.344Z,0.98
2023-08-08T11:21:42.105Z,1.00
2023-08-08T11:24:11.282Z,1.15
2023-08-08T11:26:41.409Z,1.08
2023-08-08T11:29:09.803Z,1.48
2023-08-08T11:31:39.923Z,0.73
2023-08-08T11:34:08.148Z,1.00
2023-08-08T11:36:37.396Z,0.98
2023-08-08T11:39:08.883Z,1.00
2023-08-08T11:41:38.206Z,0.88
2023-08-08T11:44:07.141Z,1.00
2023-08-08T11:46:35.160Z,1.10
2023-08-08T11:49:08.518Z,0.93
2023-08-08T11:51:37.040Z,0.70
2023-08-08T11:54:06.010Z,1.20
2023-08-08T11:56:36.332Z,1.20
2023-08-08T11:59:04.851Z,1.17
2023-08-08T12:01:35.002Z,1.20
2023-08-08T12:04:10.614Z,1.08
2023-08-08T12:06:40.207Z,1.10
2023-08-08T12:09:08.422Z,1.17
2023-08-08T12:11:38.334Z,0.95
2023-08-08T12:14:06.715Z,1.10
2023-08-08T12:16:35.009Z,1.17
2023-08-08T12:19:04.293Z,1.33
2023-08-08T12:21:36.936Z,1.38
2023-08-08T12:24:05.352Z,1.75
2023-08-08T12:26:34.380Z,1.33
2023-08-08T12:29:02.423Z,1.65
2023-08-08T12:31:30.409Z,1.23
2023-08-08T12:33:58.366Z,1.55
2023-08-08T12:36:26.378Z,1.88
2023-08-08T12:38:55.707Z,1.33
2023-08-08T12:41:25.876Z,1.27
2023-08-08T12:43:56.505Z,1.60
2023-08-08T12:46:24.561Z,1.40
2023-08-08T12:48:52.565Z,1.30
2023-08-08T12:51:20.640Z,1.40
2023-08-08T12:53:48.640Z,1.30
2023-08-08T12:56:17.980Z,1.40
2023-08-08T12:58:48.232Z,1.67
2023-08-08T13:01:18.907Z,1.33
2023-08-08T13:03:51.529Z,1.05
2023-08-08T13:06:31.289Z,1.33
2023-08-08T13:08:59.299Z,1.42
2023-08-08T13:11:28.914Z,1.27
2023-08-08T13:13:56.950Z,1.38
2023-08-08T13:16:24.994Z,1.30
2023-08-08T13:18:53.071Z,1.27
2023-08-08T13:21:21.155Z,1.08
2023-08-08T13:23:49.205Z,1.30
2023-08-08T13:26:18.659Z,1.25
2023-08-08T13:28:49.403Z,1.08
2023-08-08T13:31:17.608Z,1.25
2023-08-08T13:33:45.569Z,1.30
2023-08-08T13:36:16.126Z,1.52
2023-08-08T13:38:44.134Z,1.23
2023-08-08T13:41:12.176Z,1.17
2023-08-08T13:43:40.262Z,1.30
2023-08-08T13:46:10.918Z,1.30
2023-08-08T13:48:39.121Z,1.52
2023-08-08T13:51:07.073Z,1.55
2023-08-08T13:53:35.344Z,1.30
2023-08-08T13:56:03.320Z,1.42
2023-08-08T13:58:31.430Z,1.45
2023-08-08T14:00:59.429Z,1.40
2023-08-08T14:03:28.951Z,1.52
2023-08-08T14:05:57.045Z,1.40
2023-08-08T14:08:25.029Z,1.10
2023-08-08T14:10:52.980Z,1.60
2023-08-08T14:13:22.727Z,1.50
2023-08-08T14:15:52.874Z,1.45
2023-08-08T14:18:21.502Z,1.60
2023-08-08T14:20:50.808Z,1.55
2023-08-08T14:23:18.799Z,1.38
2023-08-08T14:25:49.457Z,1.38
2023-08-08T14:28:17.456Z,1.30
2023-08-08T14:30:45.458Z,1.80
2023-08-08T14:33:17.125Z,1.10
2023-08-08T14:35:45.520Z,1.27
2023-08-08T14:38:14.939Z,1.45
2023-08-08T14:43:13.788Z,1.30
2023-08-08T14:45:42.114Z,1.05
2023-08-08T14:48:10.135Z,1.20
2023-08-08T14:50:38.125Z,0.90
2023-08-08T14:53:06.997Z,1.10
2023-08-08T14:55:38.600Z,1.23
2023-08-08T14:58:09.272Z,0.88
2023-08-08T15:00:37.339Z,0.88
2023-08-08T15:03:06.942Z,1.02
2023-08-08T15:05:38.355Z,0.95
2023-08-08T15:08:06.503Z,1.45
2023-08-08T15:10:36.012Z,1.02
2023-08-08T15:13:05.604Z,1.30
2023-08-08T15:15:33.952Z,1.25
2023-08-08T15:18:02.036Z,1.35
2023-08-08T15:20:30.093Z,1.20
2023-08-08T15:22:58.060Z,1.27
2023-08-08T15:25:26.053Z,1.38
2023-08-08T15:27:54.061Z,1.40
2023-08-08T15:30:23.583Z,1.27
2023-08-08T15:32:51.602Z,1.60
2023-08-08T15:35:19.727Z,1.17
2023-08-08T15:38:15.683Z,1.50
2023-08-08T15:40:44.066Z,1.40
2023-08-08T15:43:12.065Z,1.90
2023-08-08T15:45:41.566Z,1.35
2023-08-08T15:48:09.640Z,1.58
2023-08-08T15:50:37.801Z,1.20
2023-08-08T15:53:06.114Z,1.42
2023-08-08T15:55:34.354Z,1.70
2023-08-08T15:58:02.895Z,1.60
2023-08-08T16:00:33.492Z,1.83
2023-08-08T16:03:02.929Z,1.60
2023-08-08T16:05:31.337Z,1.58
2023-08-08T16:07:59.274Z,1.50
2023-08-08T16:10:27.249Z,1.52
2023-08-08T16:12:55.379Z,1.30
2023-08-08T16:15:25.237Z,1.63
2023-08-08T16:17:53.262Z,1.25
2023-08-08T16:20:24.056Z,1.67
2023-08-08T16:22:52.165Z,1.10
2023-08-08T16:25:20.340Z,1.27
2023-08-08T16:27:50.936Z,1.30
2023-08-08T16:30:19.066Z,1.25
2023-08-08T16:32:47.039Z,1.42
2023-08-08T16:35:15.287Z,1.45
2023-08-08T16:37:44.707Z,1.45
2023-08-08T16:40:12.950Z,1.45
2023-08-08T16:42:40.920Z,1.42
2023-08-08T16:45:09.579Z,1.40
2023-08-08T16:47:38.218Z,1.33
2023-08-08T16:50:07.233Z,1.30
2023-08-08T16:52:35.471Z,1.35
2023-08-08T16:55:05.721Z,1.30
2023-08-08T16:57:33.692Z,1.55
2023-08-08T17:00:02.484Z,1.10
2023-08-08T17:02:31.142Z,1.50
2023-08-08T17:04:59.172Z,1.50
2023-08-08T17:07:27.105Z,1.33
2023-08-08T17:09:55.332Z,2.17
2023-08-08T17:12:24.755Z,1.40
2023-08-08T17:14:53.018Z,1.45
2023-08-08T17:17:21.586Z,1.25
2023-08-08T17:19:49.579Z,1.40
2023-08-08T17:22:17.511Z,1.48
2023-08-08T17:24:45.490Z,1.40
2023-08-08T17:27:13.543Z,1.30
2023-08-08T17:29:42.917Z,1.57
2023-08-08T17:32:11.472Z,1.30
2023-08-08T17:34:39.509Z,1.13
2023-08-08T17:37:07.467Z,1.48
2023-08-08T17:39:35.530Z,1.27
2023-08-08T17:42:03.889Z,1.30
2023-08-08T17:44:32.643Z,1.40
2023-08-08T17:47:04.547Z,1.30
2023-08-08T17:49:32.608Z,1.63
2023-08-08T17:52:00.925Z,1.60
2023-08-08T17:54:29.086Z,1.60
2023-08-08T17:56:59.416Z,1.40
2023-08-08T17:59:30.774Z,1.52
2023-08-08T18:01:59.622Z,1.48
2023-08-08T18:04:29.365Z,1.52
2023-08-08T18:07:00.167Z,2.17
2023-08-08T18:09:29.120Z,1.50
2023-08-08T18:11:59.182Z,1.30
2023-08-08T18:14:30.263Z,1.45
2023-08-08T18:17:08.065Z,1.50
2023-08-08T18:19:37.638Z,1.30
2023-08-08T18:22:07.063Z,1.52
2023-08-08T18:24:37.606Z,1.23
2023-08-08T18:27:05.710Z,1.52
2023-08-08T18:29:33.664Z,1.60
2023-08-08T18:32:02.494Z,1.58
2023-08-08T18:34:30.891Z,1.70
2023-08-08T18:37:00.262Z,1.50
2023-08-08T18:39:28.432Z,1.45
2023-08-08T18:41:59.492Z,1.48
2023-08-08T18:44:27.797Z,1.60
2023-08-08T18:46:55.824Z,1.48
2023-08-08T18:49:23.982Z,1.67
2023-08-08T18:51:52.210Z,1.40
2023-08-08T18:54:21.571Z,1.70
2023-08-08T18:56:49.539Z,1.50
2023-08-08T18:59:17.649Z,1.40
2023-08-08T19:01:45.678Z,1.40
2023-08-08T19:04:13.749Z,1.33
2023-08-08T19:06:41.834Z,1.58
2023-08-08T19:09:10.054Z,1.73
2023-08-08T19:11:42.029Z,1.75
2023-08-08T19:14:10.002Z,1.80
2023-08-08T19:16:38.224Z,1.83
2023-08-08T19:19:06.644Z,1.45
2023-08-08T19:21:34.652Z,1.40
2023-08-08T19:24:02.687Z,1.70
2023-08-08T19:26:34.669Z,1.65
2023-08-08T19:29:04.502Z,1.70
2023-08-08T19:31:32.439Z,1.70
2023-08-08T19:34:06.901Z,1.50
2023-08-08T19:36:36.508Z,1.60
2023-08-08T19:39:07.615Z,1.65
2023-08-08T19:41:38.416Z,1.63
2023-08-08T19:44:10.613Z,1.52
2023-08-08T19:46:38.647Z,1.65
2023-08-08T19:49:07.819Z,1.92
2023-08-08T19:51:38.842Z,1.75
2023-08-08T19:54:06.991Z,1.77
2023-08-08T19:56:35.066Z,1.63
2023-08-08T19:59:03.095Z,1.50
2023-08-08T20:01:32.594Z,1.55
2023-08-08T20:04:00.594Z,1.75
2023-08-08T20:06:31.467Z,1.77
2023-08-08T20:08:59.484Z,1.63
2023-08-08T20:11:27.920Z,1.40
2023-08-08T20:13:55.963Z,1.60
2023-08-08T20:16:26.304Z,1.55
2023-08-08T20:18:55.779Z,1.85
2023-08-08T20:21:23.734Z,1.52
2023-08-08T20:23:51.846Z,1.80
2023-08-08T20:26:19.804Z,1.65
2023-08-08T20:28:47.795Z,1.75
2023-08-08T20:31:15.849Z,2.00
2023-08-08T20:33:46.258Z,1.73
2023-08-08T20:36:16.171Z,1.88
2023-08-08T20:38:44.116Z,2.00
2023-08-08T20:41:12.196Z,1.52
2023-08-08T20:43:41.446Z,2.10
2023-08-08T20:46:11.921Z,1.80
2023-08-08T20:48:40.145Z,1.85
2023-08-08T20:51:08.115Z,1.90
2023-08-08T20:53:37.492Z,1.58
2023-08-08T20:58:38.683Z,1.90
2023-08-08T21:01:06.834Z,1.50
2023-08-08T21:03:34.948Z,1.95
2023-08-08T21:06:03.016Z,1.52
2023-08-08T21:08:35.465Z,2.00
2023-08-08T21:11:06.561Z,2.00
2023-08-08T21:13:34.684Z,1.80
2023-08-08T21:16:02.663Z,1.70
2023-08-08T21:18:30.693Z,1.65
2023-08-08T21:20:58.739Z,1.85
2023-08-08T21:23:29.338Z,2.28
2023-08-08T21:25:57.300Z,3.00
2023-08-08T21:28:30.537Z,3.75
2023-08-08T21:30:58.712Z,3.97
2023-08-08T21:33:26.764Z,3.60
2023-08-08T21:35:54.793Z,3.63
2023-08-08T21:38:22.821Z,3.78
2023-08-08T21:40:50.810Z,3.53
2023-08-08T21:43:18.846Z,3.55
2023-08-08T21:45:48.200Z,3.72
2023-08-08T21:48:16.225Z,3.60
2023-08-08T21:50:44.322Z,3.13
2023-08-08T21:53:12.309Z,3.72
2023-08-08T21:55:40.307Z,3.78
2023-08-08T21:58:08.522Z,3.30
2023-08-08T22:00:36.452Z,3.25
2023-08-08T22:03:06.185Z,3.08
2023-08-08T22:05:36.250Z,3.50
2023-08-08T22:08:04.771Z,3.38
2023-08-08T22:10:34.659Z,3.58
2023-08-08T22:13:02.891Z,3.47
2023-08-08T22:15:34.080Z,3.05
2023-08-08T22:18:13.538Z,3.47
2023-08-08T22:20:45.621Z,3.42
2023-08-08T22:23:20.630Z,2.80
2023-08-08T22:25:50.697Z,3.33
2023-08-08T22:28:18.950Z,3.55
2023-08-08T22:30:52.887Z,2.85
2023-08-08T22:33:22.809Z,2.93
2023-08-08T22:35:50.841Z,3.00
2023-08-08T22:38:19.105Z,2.88
2023-08-08T22:40:48.137Z,2.60
2023-08-08T22:43:16.456Z,3.17
2023-08-08T22:45:44.428Z,3.00
2023-08-08T22:48:12.404Z,2.83
2023-08-08T22:50:43.841Z,2.67
2023-08-08T22:53:14.508Z,2.55
2023-08-08T22:55:42.517Z,2.92
2023-08-08T22:58:11.754Z,2.75
2023-08-08T23:00:39.838Z,2.53
2023-08-08T23:03:08.652Z,2.55
2023-08-08T23:05:36.816Z,2.50
2023-08-08T23:08:06.938Z,2.63
2023-08-08T23:10:37.769Z,2.60
2023-08-08T23:13:05.844Z,2.70
2023-08-08T23:15:33.779Z,2.50
2023-08-08T23:18:01.809Z,2.58
2023-08-08T23:20:32.678Z,2.80
2023-08-08T23:23:00.663Z,2.40
2023-08-08T23:25:29.979Z,2.42
2023-08-08T23:27:57.960Z,2.28
2023-08-08T23:30:26.759Z,2.65
2023-08-08T23:32:55.278Z,2.13
2023-08-08T23:35:23.886Z,2.50
2023-08-08T23:37:52.284Z,2.30
2023-08-08T23:40:20.385Z,2.35
2023-08-08T23:42:49.753Z,2.40
2023-08-08T23:45:17.866Z,2.60
2023-08-08T23:47:45.920Z,2.28
2023-08-08T23:50:16.993Z,2.20
2023-08-08T23:52:45.062Z,2.30
2023-08-08T23:55:13.161Z,2.30
2023-08-08T23:57:41.094Z,2.28
